createdAt,value
2023-01-07T00:00:01.647Z,10.9
2023-01-07T00:01:01.240Z,11
2023-01-07T00:02:01.826Z,10.9
2023-01-07T00:03:01.569Z,11
2023-01-07T00:04:02.044Z,10.9
2023-01-07T00:05:01.632Z,10.9
2023-01-07T00:06:01.209Z,10.9
2023-01-07T00:07:01.794Z,10.8
2023-01-07T00:08:01.394Z,10.8
2023-01-07T00:09:02.091Z,10.8
2023-01-07T00:10:01.612Z,10.8
2023-01-07T00:11:01.182Z,10.8
2023-01-07T00:12:01.756Z,10.9
2023-01-07T00:13:01.366Z,10.8
2023-01-07T00:14:01.931Z,10.8
2023-01-07T00:15:01.542Z,10.8
2023-01-07T00:16:01.173Z,10.8
2023-01-07T00:17:01.670Z,10.8
2023-01-07T00:18:01.284Z,10.8
2023-01-07T00:19:01.845Z,10.8
2023-01-07T00:20:01.472Z,10.8
2023-01-07T00:21:02.023Z,10.8
2023-01-07T00:22:01.621Z,10.8
2023-01-07T00:23:01.221Z,10.8
2023-01-07T00:24:01.800Z,10.9
2023-01-07T00:25:01.528Z,10.8
2023-01-07T00:26:01.972Z,10.8
2023-01-07T00:27:01.562Z,10.9
2023-01-07T00:28:01.144Z,10.9
2023-01-07T00:29:01.721Z,10.9
2023-01-07T00:30:01.340Z,10.9
2023-01-07T00:31:01.932Z,10.9
2023-01-07T00:32:01.541Z,10.9
2023-01-07T00:33:01.114Z,10.9
2023-01-07T00:34:01.706Z,10.9
2023-01-07T00:35:01.317Z,10.9
2023-01-07T00:36:01.898Z,10.9
2023-01-07T00:37:01.499Z,10.9
2023-01-07T00:38:02.080Z,10.9
2023-01-07T00:39:01.676Z,10.8
2023-01-07T00:40:01.291Z,10.8
2023-01-07T00:41:02.083Z,10.9
2023-01-07T00:42:01.557Z,10.9
2023-01-07T00:43:02.083Z,10.9
2023-01-07T00:44:01.676Z,10.9
2023-01-07T00:45:01.310Z,10.9
2023-01-07T00:46:01.855Z,10.8
2023-01-07T00:47:01.441Z,10.8
2023-01-07T00:48:02.016Z,10.8
2023-01-07T00:49:01.623Z,10.7
2023-01-07T00:50:01.241Z,10.8
2023-01-07T00:51:02.805Z,10.8
2023-01-07T00:52:01.392Z,10.8
2023-01-07T00:53:01.981Z,10.9
2023-01-07T00:54:01.584Z,10.9
2023-01-07T00:55:01.180Z,10.9
2023-01-07T00:56:01.745Z,10.9
2023-01-07T00:57:01.459Z,11
2023-01-07T00:58:01.909Z,10.9
2023-01-07T00:59:01.495Z,11
2023-01-07T01:00:02.088Z,10.9
2023-01-07T01:01:01.909Z,11
2023-01-07T01:02:01.447Z,10.9
2023-01-07T01:03:01.870Z,11
2023-01-07T01:04:01.458Z,11
2023-01-07T01:05:02.062Z,10.9
2023-01-07T01:06:01.674Z,11
2023-01-07T01:07:01.265Z,11
2023-01-07T01:08:01.879Z,10.9
2023-01-07T01:09:01.471Z,10.9
2023-01-07T01:10:02.055Z,10.9
2023-01-07T01:11:01.668Z,10.9
2023-01-07T01:12:01.260Z,10.9
2023-01-07T01:13:01.949Z,10.9
2023-01-07T01:14:01.490Z,10.9
2023-01-07T01:15:02.079Z,10.9
2023-01-07T01:16:01.727Z,10.9
2023-01-07T01:17:01.315Z,10.9
2023-01-07T01:18:01.890Z,10.9
2023-01-07T01:19:01.475Z,10.9
2023-01-07T01:20:02.067Z,10.9
2023-01-07T01:21:01.676Z,10.9
2023-01-07T01:22:01.267Z,10.9
2023-01-07T01:23:01.849Z,10.9
2023-01-07T01:24:01.440Z,10.9
2023-01-07T01:25:02.020Z,10.8
2023-01-07T01:26:01.635Z,10.8
2023-01-07T01:27:01.242Z,10.8
2023-01-07T01:28:01.811Z,10.8
2023-01-07T01:29:01.526Z,10.8
2023-01-07T01:30:01.996Z,10.8
2023-01-07T01:31:01.691Z,10.8
2023-01-07T01:32:01.175Z,10.8
2023-01-07T01:33:01.732Z,10.8
2023-01-07T01:34:01.320Z,10.8
2023-01-07T01:35:01.893Z,10.7
2023-01-07T01:36:01.476Z,10.8
2023-01-07T01:37:02.072Z,10.8
2023-01-07T01:38:01.665Z,10.8
2023-01-07T01:39:01.267Z,10.8
2023-01-07T01:40:01.831Z,10.8
2023-01-07T01:41:01.545Z,10.8
2023-01-07T01:42:01.998Z,10.8
2023-01-07T01:43:01.589Z,10.8
2023-01-07T01:44:01.169Z,10.8
2023-01-07T01:45:01.863Z,10.8
2023-01-07T01:46:01.398Z,10.8
2023-01-07T01:47:02.012Z,10.8
2023-01-07T01:48:01.611Z,10.8
2023-01-07T01:49:01.185Z,10.9
2023-01-07T01:50:01.777Z,10.8
2023-01-07T01:51:01.375Z,10.8
2023-01-07T01:52:01.946Z,10.8
2023-01-07T01:53:01.540Z,10.9
2023-01-07T01:54:01.109Z,10.8
2023-01-07T01:55:01.704Z,10.8
2023-01-07T01:56:01.311Z,10.8
2023-01-07T01:57:01.873Z,10.8
2023-01-07T01:58:01.485Z,10.8
2023-01-07T01:59:02.046Z,10.9
2023-01-07T02:00:01.657Z,10.8
2023-01-07T02:01:01.515Z,10.8
2023-01-07T02:02:01.985Z,10.9
2023-01-07T02:03:01.504Z,10.9
2023-01-07T02:04:02.087Z,10.9
2023-01-07T02:05:01.679Z,10.9
2023-01-07T02:06:01.266Z,10.9
2023-01-07T02:07:01.890Z,10.9
2023-01-07T02:08:01.478Z,10.9
2023-01-07T02:09:02.049Z,10.8
2023-01-07T02:10:01.643Z,10.9
2023-01-07T02:11:01.236Z,10.9
2023-01-07T02:12:01.830Z,10.9
2023-01-07T02:13:01.440Z,10.9
2023-01-07T02:14:02.003Z,10.9
2023-01-07T02:15:01.592Z,10.9
2023-01-07T02:16:01.190Z,10.9
2023-01-07T02:17:01.857Z,10.8
2023-01-07T02:18:01.416Z,10.8
2023-01-07T02:19:01.975Z,10.8
2023-01-07T02:20:01.571Z,10.8
2023-01-07T02:21:01.156Z,10.8
2023-01-07T02:22:01.737Z,10.8
2023-01-07T02:23:01.346Z,10.8
2023-01-07T02:24:01.906Z,10.8
2023-01-07T02:25:01.499Z,10.8
2023-01-07T02:26:02.084Z,10.8
2023-01-07T02:27:01.671Z,10.8
2023-01-07T02:28:01.291Z,10.8
2023-01-07T02:29:01.836Z,10.8
2023-01-07T02:30:01.429Z,10.8
2023-01-07T02:31:01.997Z,10.8
2023-01-07T02:32:01.586Z,10.8
2023-01-07T02:33:01.299Z,10.8
2023-01-07T02:34:01.728Z,10.7
2023-01-07T02:35:01.329Z,10.7
2023-01-07T02:36:01.909Z,10.7
2023-01-07T02:37:01.500Z,10.7
2023-01-07T02:38:02.104Z,10.7
2023-01-07T02:39:01.706Z,10.6
2023-01-07T02:40:01.305Z,10.6
2023-01-07T02:41:01.905Z,10.6
2023-01-07T02:42:01.580Z,10.6
2023-01-07T02:43:02.071Z,10.5
2023-01-07T02:44:01.664Z,10.6
2023-01-07T02:45:01.256Z,10.5
2023-01-07T02:46:01.896Z,10.6
2023-01-07T02:47:01.479Z,10.6
2023-01-07T02:48:02.058Z,10.5
2023-01-07T02:49:01.768Z,10.6
2023-01-07T02:50:01.303Z,10.5
2023-01-07T02:51:01.905Z,10.5
2023-01-07T02:52:01.495Z,10.5
2023-01-07T02:53:02.083Z,10.6
2023-01-07T02:54:01.670Z,10.5
2023-01-07T02:55:01.261Z,10.5
2023-01-07T02:56:01.862Z,10.5
2023-01-07T02:57:01.456Z,10.5
2023-01-07T02:58:02.055Z,10.4
2023-01-07T02:59:01.646Z,10.5
2023-01-07T03:00:01.251Z,10.4
2023-01-07T03:01:02.018Z,10.4
2023-01-07T03:02:01.509Z,10.4
2023-01-07T03:03:02.064Z,10.4
2023-01-07T03:04:01.692Z,10.4
2023-01-07T03:05:01.380Z,10.4
2023-01-07T03:06:01.858Z,10.3
2023-01-07T03:07:01.460Z,10.3
2023-01-07T03:08:02.064Z,10.3
2023-01-07T03:09:01.650Z,10.3
2023-01-07T03:10:01.242Z,10.2
2023-01-07T03:11:01.814Z,10.2
2023-01-07T03:12:01.401Z,10.1
2023-01-07T03:13:02.010Z,10.1
2023-01-07T03:14:01.619Z,10.1
2023-01-07T03:15:01.176Z,10
2023-01-07T03:16:01.761Z,10
2023-01-07T03:17:01.348Z,10
2023-01-07T03:18:01.935Z,10.1
2023-01-07T03:19:01.573Z,10
2023-01-07T03:20:01.134Z,9.9
2023-01-07T03:21:01.731Z,9.9
2023-01-07T03:22:01.322Z,9.9
2023-01-07T03:23:01.896Z,9.9
2023-01-07T03:24:01.510Z,9.9
2023-01-07T03:25:02.082Z,9.9
2023-01-07T03:26:01.711Z,9.9
2023-01-07T03:27:01.307Z,9.9
2023-01-07T03:28:01.888Z,9.9
2023-01-07T03:29:01.524Z,9.9
2023-01-07T03:30:02.071Z,9.9
2023-01-07T03:31:01.662Z,10
2023-01-07T03:32:01.359Z,10
2023-01-07T03:33:01.822Z,10
2023-01-07T03:34:01.426Z,10.1
2023-01-07T03:35:01.993Z,10.1
2023-01-07T03:36:01.609Z,10.2
2023-01-07T03:37:01.324Z,10.2
2023-01-07T03:38:01.770Z,10.2
2023-01-07T03:39:01.364Z,10.2
2023-01-07T03:40:01.979Z,10.2
2023-01-07T03:41:01.569Z,10.2
2023-01-07T03:42:01.249Z,10.2
2023-01-07T03:43:01.730Z,10.2
2023-01-07T03:44:01.321Z,10.2
2023-01-07T03:45:01.922Z,10.2
2023-01-07T03:46:01.573Z,10.1
2023-01-07T03:47:02.098Z,10.1
2023-01-07T03:48:01.692Z,10
2023-01-07T03:49:01.285Z,10
2023-01-07T03:50:01.884Z,10
2023-01-07T03:51:01.494Z,10
2023-01-07T03:52:02.043Z,10
2023-01-07T03:53:01.764Z,10
2023-01-07T03:54:01.287Z,10
2023-01-07T03:55:01.864Z,10
2023-01-07T03:56:01.475Z,9.9
2023-01-07T03:57:02.028Z,9.9
2023-01-07T03:58:01.627Z,9.9
2023-01-07T03:59:01.213Z,10
2023-01-07T04:00:01.819Z,9.9
2023-01-07T04:01:01.542Z,10
2023-01-07T04:02:02.130Z,10
2023-01-07T04:03:01.664Z,10
2023-01-07T04:04:03.167Z,10
2023-01-07T04:05:01.793Z,10
2023-01-07T04:06:01.409Z,10
2023-01-07T04:07:01.990Z,10.1
2023-01-07T04:08:01.580Z,10
2023-01-07T04:09:01.291Z,10.1
2023-01-07T04:10:01.743Z,10.1
2023-01-07T04:11:01.344Z,10
2023-01-07T04:12:01.938Z,10
2023-01-07T04:13:01.537Z,10
2023-01-07T04:14:02.111Z,10
2023-01-07T04:15:01.730Z,10.1
2023-01-07T04:16:01.323Z,10.1
2023-01-07T04:17:01.913Z,10
2023-01-07T04:18:01.529Z,10
2023-01-07T04:19:02.121Z,9.9
2023-01-07T04:20:01.765Z,9.9
2023-01-07T04:21:01.345Z,9.9
2023-01-07T04:22:01.929Z,9.9
2023-01-07T04:23:01.515Z,10
2023-01-07T04:24:02.114Z,9.9
2023-01-07T04:25:01.822Z,9.9
2023-01-07T04:26:01.327Z,9.9
2023-01-07T04:27:01.906Z,9.9
2023-01-07T04:28:01.519Z,9.9
2023-01-07T04:29:02.094Z,9.9
2023-01-07T04:30:01.704Z,9.8
2023-01-07T04:31:01.407Z,9.9
2023-01-07T04:32:01.883Z,9.9
2023-01-07T04:33:01.481Z,9.8
2023-01-07T04:34:02.072Z,9.8
2023-01-07T04:35:01.699Z,9.8
2023-01-07T04:36:01.294Z,9.7
2023-01-07T04:37:01.881Z,9.7
2023-01-07T04:38:01.478Z,9.7
2023-01-07T04:39:02.061Z,9.8
2023-01-07T04:40:01.701Z,9.8
2023-01-07T04:41:01.432Z,9.8
2023-01-07T04:42:01.889Z,9.8
2023-01-07T04:43:01.561Z,9.7
2023-01-07T04:44:02.072Z,9.7
2023-01-07T04:45:01.701Z,9.6
2023-01-07T04:46:01.362Z,9.6
2023-01-07T04:47:01.874Z,9.7
2023-01-07T04:48:01.467Z,9.7
2023-01-07T04:49:02.048Z,9.8
2023-01-07T04:50:01.683Z,9.8
2023-01-07T04:51:01.295Z,9.8
2023-01-07T04:52:01.860Z,9.8
2023-01-07T04:53:01.459Z,9.9
2023-01-07T04:54:02.036Z,9.8
2023-01-07T04:55:01.625Z,9.8
2023-01-07T04:56:01.237Z,9.8
2023-01-07T04:57:01.903Z,9.8
2023-01-07T04:58:01.437Z,9.9
2023-01-07T04:59:02.012Z,9.9
2023-01-07T05:00:01.599Z,9.9
2023-01-07T05:01:01.300Z,9.8
2023-01-07T05:02:01.950Z,9.8
2023-01-07T05:03:01.414Z,9.9
2023-01-07T05:04:02.017Z,9.8
2023-01-07T05:05:01.621Z,9.8
2023-01-07T05:06:01.214Z,9.8
2023-01-07T05:07:01.808Z,9.8
2023-01-07T05:08:01.419Z,9.8
2023-01-07T05:09:01.975Z,9.8
2023-01-07T05:10:01.566Z,9.8
2023-01-07T05:11:01.151Z,9.8
2023-01-07T05:12:01.724Z,9.8
2023-01-07T05:13:01.451Z,9.8
2023-01-07T05:14:01.888Z,9.8
2023-01-07T05:15:01.500Z,9.7
2023-01-07T05:16:02.052Z,9.7
2023-01-07T05:17:01.673Z,9.8
2023-01-07T05:18:01.311Z,9.8
2023-01-07T05:19:01.861Z,9.8
2023-01-07T05:20:01.453Z,9.8
2023-01-07T05:21:02.031Z,9.7
2023-01-07T05:22:01.621Z,9.7
2023-01-07T05:23:01.221Z,9.7
2023-01-07T05:24:01.793Z,9.6
2023-01-07T05:25:01.378Z,9.6
2023-01-07T05:26:01.968Z,9.6
2023-01-07T05:27:01.570Z,9.6
2023-01-07T05:28:01.156Z,9.6
2023-01-07T05:29:01.869Z,9.6
2023-01-07T05:30:01.376Z,9.6
2023-01-07T05:31:02.048Z,9.6
2023-01-07T05:32:01.618Z,9.5
2023-01-07T05:33:01.184Z,9.6
2023-01-07T05:34:01.780Z,9.6
2023-01-07T05:35:01.371Z,9.5
2023-01-07T05:36:01.945Z,9.5
2023-01-07T05:37:01.546Z,9.5
2023-01-07T05:38:01.132Z,9.5
2023-01-07T05:39:01.687Z,9.5
2023-01-07T05:40:01.279Z,9.5
2023-01-07T05:41:01.870Z,9.5
2023-01-07T05:42:01.458Z,9.5
2023-01-07T05:43:02.060Z,9.4
2023-01-07T05:44:01.739Z,9.5
2023-01-07T05:45:01.374Z,9.4
2023-01-07T05:46:01.897Z,9.5
2023-01-07T05:47:01.501Z,9.4
2023-01-07T05:48:02.098Z,9.5
2023-01-07T05:49:01.687Z,9.5
2023-01-07T05:50:01.275Z,9.4
2023-01-07T05:51:01.851Z,9.5
2023-01-07T05:52:01.442Z,9.5
2023-01-07T05:53:02.029Z,9.5
2023-01-07T05:54:01.623Z,9.4
2023-01-07T05:55:01.196Z,9.4
2023-01-07T05:56:01.785Z,9.4
2023-01-07T05:57:01.375Z,9.5
2023-01-07T05:58:01.975Z,9.5
2023-01-07T05:59:01.566Z,9.5
2023-01-07T06:00:01.155Z,9.5
2023-01-07T06:01:01.843Z,9.5
2023-01-07T06:02:01.373Z,9.5
2023-01-07T06:03:01.965Z,9.5
2023-01-07T06:04:01.558Z,9.5
2023-01-07T06:05:01.206Z,9.4
2023-01-07T06:06:01.734Z,9.5
2023-01-07T06:07:01.325Z,9.5
2023-01-07T06:08:01.919Z,9.4
2023-01-07T06:09:01.503Z,9.4
2023-01-07T06:10:03.154Z,9.4
2023-01-07T06:11:01.880Z,9.4
2023-01-07T06:12:01.323Z,9.4
2023-01-07T06:13:01.902Z,9.4
2023-01-07T06:14:01.491Z,9.4
2023-01-07T06:15:02.063Z,9.4
2023-01-07T06:16:01.808Z,9.4
2023-01-07T06:17:01.426Z,9.3
2023-01-07T06:18:01.865Z,9.3
2023-01-07T06:19:01.469Z,9.3
2023-01-07T06:20:02.058Z,9.3
2023-01-07T06:21:01.677Z,9.3
2023-01-07T06:22:01.263Z,9.3
2023-01-07T06:23:01.867Z,9.3
2023-01-07T06:24:01.461Z,9.2
2023-01-07T06:25:02.056Z,9.2
2023-01-07T06:26:01.653Z,9.3
2023-01-07T06:27:01.271Z,9.2
2023-01-07T06:28:01.830Z,9.2
2023-01-07T06:29:01.429Z,9.2
2023-01-07T06:30:02.009Z,9.2
2023-01-07T06:31:01.706Z,9.1
2023-01-07T06:32:01.221Z,9.1
2023-01-07T06:33:01.904Z,9.1
2023-01-07T06:34:01.453Z,9.1
2023-01-07T06:35:02.016Z,9.2
2023-01-07T06:36:01.602Z,9.2
2023-01-07T06:37:01.216Z,9.2
2023-01-07T06:38:01.764Z,9.1
2023-01-07T06:39:01.362Z,9.1
2023-01-07T06:40:01.937Z,9.1
2023-01-07T06:41:01.528Z,9.1
2023-01-07T06:42:02.132Z,9.1
2023-01-07T06:43:01.724Z,9.1
2023-01-07T06:44:01.425Z,9.1
2023-01-07T06:45:01.899Z,9
2023-01-07T06:46:01.540Z,9
2023-01-07T06:47:02.081Z,9
2023-01-07T06:48:01.671Z,9.1
2023-01-07T06:49:01.396Z,9
2023-01-07T06:50:01.834Z,9
2023-01-07T06:51:01.421Z,9
2023-01-07T06:52:02.020Z,8.9
2023-01-07T06:53:01.653Z,9
2023-01-07T06:54:01.195Z,8.9
2023-01-07T06:55:01.765Z,9
2023-01-07T06:56:01.351Z,9
2023-01-07T06:57:01.941Z,9
2023-01-07T06:58:01.555Z,9
2023-01-07T06:59:02.117Z,9
2023-01-07T07:00:01.711Z,9
2023-01-07T07:01:01.370Z,9
2023-01-07T07:02:01.912Z,9
2023-01-07T07:03:01.566Z,9.1
2023-01-07T07:04:02.107Z,9
2023-01-07T07:05:01.826Z,9.1
2023-01-07T07:06:01.358Z,9.1
2023-01-07T07:07:01.928Z,9.2
2023-01-07T07:08:01.555Z,9.2
2023-01-07T07:09:02.103Z,9.3
2023-01-07T07:10:01.713Z,9.3
2023-01-07T07:11:01.307Z,9.3
2023-01-07T07:12:01.890Z,9.3
2023-01-07T07:13:01.503Z,9.3
2023-01-07T07:14:02.049Z,9.3
2023-01-07T07:15:01.636Z,9.3
2023-01-07T07:16:01.282Z,9.3
2023-01-07T07:17:01.808Z,9.3
2023-01-07T07:18:01.416Z,9.4
2023-01-07T07:19:01.980Z,9.3
2023-01-07T07:20:01.572Z,9.3
2023-01-07T07:21:01.272Z,9.4
2023-01-07T07:22:03.861Z,9.5
2023-01-07T07:23:01.273Z,9.5
2023-01-07T07:24:01.861Z,9.6
2023-01-07T07:25:01.474Z,9.5
2023-01-07T07:26:02.023Z,9.6
2023-01-07T07:27:01.626Z,9.6
2023-01-07T07:28:01.195Z,9.6
2023-01-07T07:29:01.782Z,9.7
2023-01-07T07:30:01.395Z,9.7
2023-01-07T07:31:02.010Z,9.7
2023-01-07T07:32:01.623Z,9.7
2023-01-07T07:33:01.210Z,9.8
2023-01-07T07:34:01.789Z,9.8
2023-01-07T07:35:01.397Z,9.8
2023-01-07T07:36:01.957Z,9.8
2023-01-07T07:37:01.675Z,9.8
2023-01-07T07:38:01.132Z,9.8
2023-01-07T07:39:01.717Z,9.8
2023-01-07T07:40:01.362Z,9.8
2023-01-07T07:41:01.897Z,9.9
2023-01-07T07:42:01.489Z,9.9
2023-01-07T07:43:09.891Z,9.9
2023-01-07T07:44:01.612Z,9.9
2023-01-07T07:45:01.333Z,9.9
2023-01-07T07:46:01.771Z,9.9
2023-01-07T07:47:01.382Z,10
2023-01-07T07:48:01.943Z,9.9
2023-01-07T07:49:01.534Z,10
2023-01-07T07:50:02.101Z,10
2023-01-07T07:51:01.693Z,10
2023-01-07T07:52:01.307Z,10
2023-01-07T07:53:01.974Z,10.1
2023-01-07T07:54:01.510Z,10.1
2023-01-07T07:55:19.737Z,10.1
2023-01-07T07:56:01.635Z,10.1
2023-01-07T07:57:01.264Z,10.1
2023-01-07T07:58:01.809Z,10.1
2023-01-07T07:59:01.403Z,10.2
2023-01-07T08:00:01.988Z,10.2
2023-01-07T08:01:01.623Z,10.1
2023-01-07T08:02:01.243Z,10.2
2023-01-07T08:03:01.766Z,10.1
2023-01-07T08:04:01.367Z,10.2
2023-01-07T08:05:01.939Z,10.2
2023-01-07T08:06:01.529Z,10.2
2023-01-07T08:07:02.140Z,10.2
2023-01-07T08:08:01.743Z,10.2
2023-01-07T08:09:01.454Z,10.2
2023-01-07T08:10:01.921Z,10.2
2023-01-07T08:11:01.511Z,10.3
2023-01-07T08:12:02.121Z,10.2
2023-01-07T08:13:01.718Z,10.3
2023-01-07T08:14:01.327Z,10.2
2023-01-07T08:15:01.905Z,10.2
2023-01-07T08:16:01.534Z,10.3
2023-01-07T08:17:02.108Z,10.3
2023-01-07T08:18:01.703Z,10.3
2023-01-07T08:19:01.293Z,10.3
2023-01-07T08:20:01.895Z,10.3
2023-01-07T08:21:01.497Z,10.3
2023-01-07T08:22:02.102Z,10.3
2023-01-07T08:23:01.715Z,10.3
2023-01-07T08:24:01.307Z,10.3
2023-01-07T08:25:02.058Z,10.3
2023-01-07T08:26:01.561Z,10.3
2023-01-07T08:27:01.131Z,10.4
2023-01-07T08:28:01.719Z,10.4
2023-01-07T08:29:01.324Z,10.4
2023-01-07T08:30:01.882Z,10.4
2023-01-07T08:31:01.539Z,10.4
2023-01-07T08:32:02.060Z,10.4
2023-01-07T08:33:01.654Z,10.5
2023-01-07T08:34:01.263Z,10.5
2023-01-07T08:35:01.832Z,10.5
2023-01-07T08:36:02.483Z,10.5
2023-01-07T08:37:01.988Z,10.6
2023-01-07T08:38:01.581Z,10.5
2023-01-07T08:39:01.182Z,10.6
2023-01-07T08:40:02.948Z,10.6
2023-01-07T08:41:01.292Z,10.6
2023-01-07T08:42:01.899Z,10.6
2023-01-07T08:43:01.523Z,10.6
2023-01-07T08:44:02.085Z,10.6
2023-01-07T08:45:01.675Z,10.6
2023-01-07T08:46:01.391Z,10.6
2023-01-07T08:47:01.877Z,10.7
2023-01-07T08:48:01.481Z,10.7
2023-01-07T08:49:02.077Z,10.7
2023-01-07T08:50:01.674Z,10.7
2023-01-07T08:51:01.260Z,10.7
2023-01-07T08:52:01.870Z,10.7
2023-01-07T08:53:01.464Z,10.8
2023-01-07T08:54:02.066Z,10.8
2023-01-07T08:55:01.653Z,10.8
2023-01-07T08:56:01.231Z,10.8
2023-01-07T08:57:01.930Z,10.8
2023-01-07T08:58:01.452Z,10.7
2023-01-07T08:59:02.059Z,10.8
2023-01-07T09:00:01.659Z,10.7
2023-01-07T09:01:01.364Z,10.7
2023-01-07T09:02:02.010Z,10.7
2023-01-07T09:03:02.032Z,10.8
2023-01-07T09:04:01.651Z,10.8
2023-01-07T09:05:01.247Z,10.7
2023-01-07T09:06:01.931Z,10.7
2023-01-07T09:07:01.480Z,10.7
2023-01-07T09:08:02.070Z,10.7
2023-01-07T09:09:01.660Z,10.7
2023-01-07T09:10:01.247Z,10.8
2023-01-07T09:11:01.860Z,10.8
2023-01-07T09:12:01.455Z,10.8
2023-01-07T09:13:02.154Z,10.8
2023-01-07T09:14:01.696Z,10.8
2023-01-07T09:15:01.285Z,10.8
2023-01-07T09:16:01.964Z,10.8
2023-01-07T09:17:01.526Z,10.8
2023-01-07T09:18:02.144Z,10.8
2023-01-07T09:19:01.740Z,10.7
2023-01-07T09:20:01.329Z,10.7
2023-01-07T09:21:01.923Z,10.8
2023-01-07T09:22:01.526Z,10.7
2023-01-07T09:23:02.121Z,10.7
2023-01-07T09:24:01.717Z,10.7
2023-01-07T09:25:01.311Z,10.7
2023-01-07T09:26:01.891Z,10.7
2023-01-07T09:27:01.481Z,10.7
2023-01-07T09:28:02.081Z,10.8
2023-01-07T09:29:01.790Z,10.8
2023-01-07T09:30:01.332Z,10.8
2023-01-07T09:31:01.864Z,10.8
2023-01-07T09:32:01.475Z,10.9
2023-01-07T09:33:02.045Z,11
2023-01-07T09:34:01.632Z,10.9
2023-01-07T09:35:01.256Z,10.9
2023-01-07T09:36:01.838Z,10.9
2023-01-07T09:37:01.449Z,11
2023-01-07T09:38:02.033Z,10.9
2023-01-07T09:39:01.653Z,11
2023-01-07T09:40:01.282Z,11
2023-01-07T09:41:01.783Z,11
2023-01-07T09:42:01.385Z,11
2023-01-07T09:43:02.007Z,11
2023-01-07T09:44:01.891Z,11
2023-01-07T09:45:01.297Z,11
2023-01-07T09:46:01.903Z,11
2023-01-07T09:47:01.426Z,11
2023-01-07T09:48:02.033Z,10.9
2023-01-07T09:49:01.619Z,10.9
2023-01-07T09:50:01.194Z,10.9
2023-01-07T09:51:01.772Z,10.9
2023-01-07T09:52:01.365Z,10.9
2023-01-07T09:53:01.961Z,10.9
2023-01-07T09:54:01.565Z,10.9
2023-01-07T09:55:01.137Z,11
2023-01-07T09:56:10.428Z,11
2023-01-07T09:57:01.271Z,10.9
2023-01-07T09:58:01.860Z,10.9
2023-01-07T09:59:01.474Z,11
2023-01-07T10:00:02.028Z,10.9
2023-01-07T10:01:01.789Z,10.9
2023-01-07T10:02:01.194Z,11
2023-01-07T10:03:01.777Z,10.9
2023-01-07T10:04:01.422Z,10.9
2023-01-07T10:05:01.941Z,10.8
2023-01-07T10:06:01.564Z,10.8
2023-01-07T10:07:02.131Z,10.9
2023-01-07T10:08:28.907Z,10.9
2023-01-07T10:09:01.293Z,10.9
2023-01-07T10:10:01.915Z,10.8
2023-01-07T10:11:01.538Z,10.8
2023-01-07T10:12:02.089Z,10.8
2023-01-07T10:13:01.678Z,10.8
2023-01-07T10:14:01.288Z,10.8
2023-01-07T10:15:01.862Z,10.9
2023-01-07T10:16:01.526Z,10.8
2023-01-07T10:17:02.218Z,10.8
2023-01-07T10:18:01.845Z,10.8
2023-01-07T10:19:01.346Z,10.8
2023-01-07T10:20:01.893Z,10.8
2023-01-07T10:21:01.481Z,10.8
2023-01-07T10:22:02.067Z,10.8
2023-01-07T10:23:01.657Z,10.8
2023-01-07T10:24:01.291Z,10.8
2023-01-07T10:25:01.826Z,10.9
2023-01-07T10:26:01.431Z,11
2023-01-07T10:27:02.017Z,10.9
2023-01-07T10:28:01.614Z,11
2023-01-07T10:29:01.217Z,11
2023-01-07T10:30:01.784Z,11
2023-01-07T10:31:01.374Z,11
2023-01-07T10:32:02.062Z,11.1
2023-01-07T10:33:01.715Z,11.1
2023-01-07T10:34:01.199Z,11.1
2023-01-07T10:35:01.760Z,11.1
2023-01-07T10:36:01.351Z,11.1
2023-01-07T10:37:01.927Z,11.2
2023-01-07T10:38:01.519Z,11.1
2023-01-07T10:39:02.122Z,11.1
2023-01-07T10:40:01.732Z,11.2
2023-01-07T10:41:01.335Z,11.2
2023-01-07T10:42:01.894Z,11.1
2023-01-07T10:43:01.480Z,11.2
2023-01-07T10:44:02.067Z,11.3
2023-01-07T10:45:01.677Z,11.3
2023-01-07T10:46:01.344Z,11.3
2023-01-07T10:47:01.956Z,11.4
2023-01-07T10:48:01.515Z,11.4
2023-01-07T10:49:02.240Z,11.3
2023-01-07T10:50:01.885Z,11.4
2023-01-07T10:51:01.346Z,11.5
2023-01-07T10:52:01.935Z,11.6
2023-01-07T10:53:01.522Z,11.6
2023-01-07T10:54:02.109Z,11.6
2023-01-07T10:55:01.727Z,11.6
2023-01-07T10:56:01.316Z,11.6
2023-01-07T10:57:01.902Z,11.7
2023-01-07T10:58:01.491Z,11.8
2023-01-07T10:59:02.075Z,11.7
2023-01-07T11:00:01.682Z,11.7
2023-01-07T11:01:01.461Z,11.7
2023-01-07T11:02:02.250Z,11.8
2023-01-07T11:03:01.546Z,11.7
2023-01-07T11:04:02.105Z,11.6
2023-01-07T11:05:01.838Z,11.6
2023-01-07T11:06:01.325Z,11.6
2023-01-07T11:07:01.896Z,11.5
2023-01-07T11:08:01.486Z,11.6
2023-01-07T11:09:02.067Z,11.6
2023-01-07T11:10:01.681Z,11.6
2023-01-07T11:11:01.280Z,11.7
2023-01-07T11:12:01.854Z,11.6
2023-01-07T11:13:01.454Z,11.6
2023-01-07T11:14:02.039Z,11.7
2023-01-07T11:15:01.651Z,11.7
2023-01-07T11:16:01.213Z,11.7
2023-01-07T11:17:01.804Z,11.7
2023-01-07T11:18:01.405Z,11.7
2023-01-07T11:19:01.981Z,11.6
2023-01-07T11:20:01.601Z,11.8
2023-01-07T11:21:01.282Z,11.8
2023-01-07T11:22:01.732Z,11.9
2023-01-07T11:23:01.324Z,11.9
2023-01-07T11:24:01.908Z,12
2023-01-07T11:25:01.596Z,11.9
2023-01-07T11:26:01.148Z,12
2023-01-07T11:27:01.738Z,12.1
2023-01-07T11:28:01.340Z,12.1
2023-01-07T11:29:01.911Z,12.1
2023-01-07T11:30:01.549Z,12.2
2023-01-07T11:31:02.082Z,12.2
2023-01-07T11:32:01.727Z,12.2
2023-01-07T11:33:01.330Z,12.1
2023-01-07T11:34:04.509Z,12.1
2023-01-07T11:35:01.511Z,12.1
2023-01-07T11:36:02.206Z,12
2023-01-07T11:37:01.926Z,12
2023-01-07T11:38:01.389Z,12
2023-01-07T11:39:01.928Z,12
2023-01-07T11:40:01.614Z,11.9
2023-01-07T11:41:02.117Z,11.9
2023-01-07T11:42:01.711Z,11.8
2023-01-07T11:43:01.318Z,11.9
2023-01-07T11:44:01.887Z,11.9
2023-01-07T11:45:01.498Z,11.9
2023-01-07T11:46:20.625Z,11.9
2023-01-07T11:47:01.592Z,11.9
2023-01-07T11:48:01.301Z,11.9
2023-01-07T11:49:01.757Z,11.9
2023-01-07T11:50:01.368Z,11.8
2023-01-07T11:51:01.956Z,11.9
2023-01-07T11:52:01.572Z,11.9
2023-01-07T11:53:02.250Z,11.9
2023-01-07T11:54:01.852Z,11.9
2023-01-07T11:55:01.354Z,12
2023-01-07T11:56:01.993Z,12.1
2023-01-07T11:57:01.607Z,12.1
2023-01-07T11:58:29.155Z,12
2023-01-07T11:59:01.718Z,11.9
2023-01-07T12:00:01.307Z,11.9
2023-01-07T12:01:01.961Z,12
2023-01-07T12:02:01.580Z,11.9
2023-01-07T12:03:02.205Z,12
2023-01-07T12:04:01.797Z,12
2023-01-07T12:05:01.368Z,12
2023-01-07T12:06:01.976Z,12.1
2023-01-07T12:07:01.566Z,12
2023-01-07T12:08:01.149Z,12
2023-01-07T12:09:01.863Z,11.9
2023-01-07T12:10:01.390Z,11.9
2023-01-07T12:11:01.998Z,11.9
2023-01-07T12:12:01.591Z,12
2023-01-07T12:13:01.174Z,12
2023-01-07T12:14:01.749Z,12
2023-01-07T12:15:01.335Z,12
2023-01-07T12:16:01.985Z,12.1
2023-01-07T12:17:01.583Z,12.1
2023-01-07T12:18:01.188Z,12.2
2023-01-07T12:19:01.768Z,12.1
2023-01-07T12:20:01.357Z,12
2023-01-07T12:21:01.940Z,12
2023-01-07T12:22:01.551Z,12
2023-01-07T12:23:02.138Z,12.1
2023-01-07T12:24:01.733Z,12
2023-01-07T12:25:01.359Z,12
2023-01-07T12:26:01.909Z,12
2023-01-07T12:27:01.517Z,12.1
2023-01-07T12:28:02.092Z,12
2023-01-07T12:29:01.708Z,12
2023-01-07T12:30:01.317Z,12
2023-01-07T12:31:01.934Z,12
2023-01-07T12:32:01.581Z,12
2023-01-07T12:33:02.130Z,12
2023-01-07T12:34:01.743Z,12
2023-01-07T12:35:14.153Z,12.1
2023-01-07T12:36:01.874Z,12.1
2023-01-07T12:37:01.464Z,12
2023-01-07T12:38:02.074Z,12.1
2023-01-07T12:39:01.666Z,12
2023-01-07T12:40:01.250Z,12
2023-01-07T12:41:01.853Z,12
2023-01-07T12:42:01.439Z,12
2023-01-07T12:43:02.048Z,12
2023-01-07T12:44:01.659Z,11.9
2023-01-07T12:45:01.237Z,11.9
2023-01-07T12:46:01.875Z,11.9
2023-01-07T12:47:30.345Z,11.9
2023-01-07T12:48:01.623Z,11.9
2023-01-07T12:49:01.252Z,12
2023-01-07T12:50:00.846Z,11.9
2023-01-07T12:51:01.433Z,11.9
2023-01-07T12:52:01.037Z,11.9
2023-01-07T12:53:00.616Z,11.8
2023-01-07T12:54:01.221Z,12
2023-01-07T12:55:00.841Z,12
2023-01-07T12:56:01.413Z,12.1
2023-01-07T12:57:01.120Z,12.2
2023-01-07T12:58:01.590Z,12.3
2023-01-07T12:59:01.209Z,12.2
2023-01-07T13:00:00.804Z,12.1
2023-01-07T13:01:01.483Z,12.2
2023-01-07T13:02:01.130Z,12.2
2023-01-07T13:03:00.637Z,12.3
2023-01-07T13:04:01.232Z,12.3
2023-01-07T13:05:00.955Z,12.3
2023-01-07T13:06:01.429Z,12.4
2023-01-07T13:07:01.018Z,12.3
2023-01-07T13:08:02.175Z,12.5
2023-01-07T13:09:01.162Z,12.3
2023-01-07T13:10:00.751Z,12.3
2023-01-07T13:11:01.337Z,12.2
2023-01-07T13:12:00.929Z,12.3
2023-01-07T13:13:01.631Z,12.4
2023-01-07T13:14:01.189Z,12.5
2023-01-07T13:15:00.753Z,12.5
2023-01-07T13:16:01.349Z,12.5
2023-01-07T13:17:00.947Z,12.2
2023-01-07T13:18:01.536Z,12.1
2023-01-07T13:19:01.150Z,12.1
2023-01-07T13:20:01.630Z,12.2
2023-01-07T13:21:01.286Z,12.2
2023-01-07T13:22:00.874Z,12.2
2023-01-07T13:23:01.460Z,12.2
2023-01-07T13:24:01.071Z,12.2
2023-01-07T13:25:00.634Z,12.3
2023-01-07T13:26:01.212Z,12.3
2023-01-07T13:27:00.803Z,12.1
2023-01-07T13:28:01.390Z,12.2
2023-01-07T13:29:01.133Z,12.1
2023-01-07T13:30:01.563Z,12
2023-01-07T13:31:01.208Z,11.9
2023-01-07T13:32:00.808Z,11.8
2023-01-07T13:33:01.385Z,11.7